sensor_id;sensor_type;location;lat;lon;timestamp;P1;durP1;ratioP1;P2;durP2;ratioP2
39896;SDS011;25567;48.276;14.242;2023-12-20T00:01:44;72.75;;;22.75;;
39896;SDS011;25567;48.276;14.242;2023-12-20T00:04:11;106.55;;;25.58;;
39896;SDS011;25567;48.276;14.242;2023-12-20T00:06:38;70.40;;;24.40;;
39896;SDS011;25567;48.276;14.242;2023-12-20T00:09:05;89.68;;;24.92;;
39896;SDS011;25567;48.276;14.242;2023-12-20T00:11:31;73.18;;;24.45;;
39896;SDS011;25567;48.276;14.242;2023-12-20T00:13:58;64.63;;;22.50;;
39896;SDS011;25567;48.276;14.242;2023-12-20T00:16:25;56.40;;;22.63;;
39896;SDS011;25567;48.276;14.242;2023-12-20T00:18:52;55.75;;;21.73;;
39896;SDS011;25567;48.276;14.242;2023-12-20T00:21:18;60.08;;;23.02;;
39896;SDS011;25567;48.276;14.242;2023-12-20T00:23:45;58.60;;;22.92;;
39896;SDS011;25567;48.276;14.242;2023-12-20T00:26:12;51.45;;;19.85;;
39896;SDS011;25567;48.276;14.242;2023-12-20T00:28:39;52.70;;;21.15;;
39896;SDS011;25567;48.276;14.242;2023-12-20T00:31:06;47.58;;;19.88;;
39896;SDS011;25567;48.276;14.242;2023-12-20T00:33:32;52.92;;;20.50;;
39896;SDS011;25567;48.276;14.242;2023-12-20T00:36:00;47.75;;;18.77;;
39896;SDS011;25567;48.276;14.242;2023-12-20T00:38:26;46.13;;;19.92;;
39896;SDS011;25567;48.276;14.242;2023-12-20T00:40:53;48.97;;;19.60;;
39896;SDS011;25567;48.276;14.242;2023-12-20T00:43:20;45.50;;;16.42;;
39896;SDS011;25567;48.276;14.242;2023-12-20T00:45:47;30.15;;;14.02;;
39896;SDS011;25567;48.276;14.242;2023-12-20T00:48:14;37.85;;;16.80;;
39896;SDS011;25567;48.276;14.242;2023-12-20T00:50:41;41.08;;;19.70;;
39896;SDS011;25567;48.276;14.242;2023-12-20T00:53:07;44.33;;;19.38;;
39896;SDS011;25567;48.276;14.242;2023-12-20T00:55:34;47.00;;;20.33;;
39896;SDS011;25567;48.276;14.242;2023-12-20T00:58:01;47.90;;;20.67;;
39896;SDS011;25567;48.276;14.242;2023-12-20T01:00:27;45.72;;;21.30;;
39896;SDS011;25567;48.276;14.242;2023-12-20T01:02:54;48.65;;;20.90;;
39896;SDS011;25567;48.276;14.242;2023-12-20T01:05:21;50.35;;;20.98;;
39896;SDS011;25567;48.276;14.242;2023-12-20T01:07:50;39.67;;;19.75;;
39896;SDS011;25567;48.276;14.242;2023-12-20T01:10:16;47.10;;;18.98;;
39896;SDS011;25567;48.276;14.242;2023-12-20T01:12:43;47.20;;;18.92;;
39896;SDS011;25567;48.276;14.242;2023-12-20T01:15:10;38.78;;;18.45;;
39896;SDS011;25567;48.276;14.242;2023-12-20T01:17:37;40.33;;;17.63;;
39896;SDS011;25567;48.276;14.242;2023-12-20T01:20:04;38.97;;;16.92;;
39896;SDS011;25567;48.276;14.242;2023-12-20T01:22:31;43.65;;;17.70;;
39896;SDS011;25567;48.276;14.242;2023-12-20T01:24:58;33.67;;;16.30;;
39896;SDS011;25567;48.276;14.242;2023-12-20T01:27:24;33.60;;;16.35;;
39896;SDS011;25567;48.276;14.242;2023-12-20T01:29:51;37.15;;;16.60;;
39896;SDS011;25567;48.276;14.242;2023-12-20T01:32:18;48.05;;;21.95;;
39896;SDS011;25567;48.276;14.242;2023-12-20T01:34:44;38.22;;;18.00;;
39896;SDS011;25567;48.276;14.242;2023-12-20T01:37:11;39.65;;;16.67;;
39896;SDS011;25567;48.276;14.242;2023-12-20T01:39:38;36.42;;;16.30;;
39896;SDS011;25567;48.276;14.242;2023-12-20T01:42:04;35.00;;;16.58;;
39896;SDS011;25567;48.276;14.242;2023-12-20T01:44:31;46.25;;;18.92;;
39896;SDS011;25567;48.276;14.242;2023-12-20T01:46:58;49.17;;;19.48;;
39896;SDS011;25567;48.276;14.242;2023-12-20T01:49:24;49.53;;;21.42;;
39896;SDS011;25567;48.276;14.242;2023-12-20T01:51:51;37.63;;;18.15;;
39896;SDS011;25567;48.276;14.242;2023-12-20T01:54:18;39.80;;;18.15;;
39896;SDS011;25567;48.276;14.242;2023-12-20T01:56:45;42.67;;;18.45;;
39896;SDS011;25567;48.276;14.242;2023-12-20T01:59:12;38.22;;;17.05;;
39896;SDS011;25567;48.276;14.242;2023-12-20T02:01:39;36.92;;;16.90;;
39896;SDS011;25567;48.276;14.242;2023-12-20T02:04:06;45.75;;;18.48;;
39896;SDS011;25567;48.276;14.242;2023-12-20T02:06:33;40.38;;;19.10;;
39896;SDS011;25567;48.276;14.242;2023-12-20T02:09:00;41.45;;;18.70;;
39896;SDS011;25567;48.276;14.242;2023-12-20T02:11:26;42.85;;;18.38;;
39896;SDS011;25567;48.276;14.242;2023-12-20T02:13:53;68.28;;;27.40;;
39896;SDS011;25567;48.276;14.242;2023-12-20T02:16:21;43.30;;;20.30;;
39896;SDS011;25567;48.276;14.242;2023-12-20T02:18:48;76.85;;;30.08;;
39896;SDS011;25567;48.276;14.242;2023-12-20T02:21:15;46.35;;;19.00;;
39896;SDS011;25567;48.276;14.242;2023-12-20T02:23:41;39.10;;;17.15;;
39896;SDS011;25567;48.276;14.242;2023-12-20T02:26:08;36.22;;;16.17;;
39896;SDS011;25567;48.276;14.242;2023-12-20T02:28:35;39.38;;;17.10;;
39896;SDS011;25567;48.276;14.242;2023-12-20T02:31:01;45.13;;;16.83;;
39896;SDS011;25567;48.276;14.242;2023-12-20T02:33:28;34.83;;;16.08;;
39896;SDS011;25567;48.276;14.242;2023-12-20T02:35:55;34.42;;;17.13;;
39896;SDS011;25567;48.276;14.242;2023-12-20T02:38:22;37.38;;;16.40;;
39896;SDS011;25567;48.276;14.242;2023-12-20T02:40:49;41.85;;;16.98;;
39896;SDS011;25567;48.276;14.242;2023-12-20T02:43:15;42.03;;;18.98;;
39896;SDS011;25567;48.276;14.242;2023-12-20T02:45:42;51.58;;;20.10;;
39896;SDS011;25567;48.276;14.242;2023-12-20T02:48:09;38.15;;;17.45;;
39896;SDS011;25567;48.276;14.242;2023-12-20T02:50:36;39.30;;;17.42;;
39896;SDS011;25567;48.276;14.242;2023-12-20T02:53:03;44.60;;;18.60;;
39896;SDS011;25567;48.276;14.242;2023-12-20T02:55:30;43.03;;;19.20;;
39896;SDS011;25567;48.276;14.242;2023-12-20T02:57:57;48.22;;;20.40;;
39896;SDS011;25567;48.276;14.242;2023-12-20T03:00:23;49.70;;;20.27;;
39896;SDS011;25567;48.276;14.242;2023-12-20T03:02:50;43.92;;;19.88;;
39896;SDS011;25567;48.276;14.242;2023-12-20T03:05:17;40.72;;;19.08;;
39896;SDS011;25567;48.276;14.242;2023-12-20T03:07:57;48.85;;;20.05;;
39896;SDS011;25567;48.276;14.242;2023-12-20T03:10:38;40.80;;;18.13;;
39896;SDS011;25567;48.276;14.242;2023-12-20T03:13:18;42.47;;;18.45;;
39896;SDS011;25567;48.276;14.242;2023-12-20T03:15:59;39.97;;;17.77;;
39896;SDS011;25567;48.276;14.242;2023-12-20T03:18:39;44.15;;;18.77;;
39896;SDS011;25567;48.276;14.242;2023-12-20T03:21:20;39.72;;;18.17;;
39896;SDS011;25567;48.276;14.242;2023-12-20T03:24:00;41.70;;;17.83;;
39896;SDS011;25567;48.276;14.242;2023-12-20T03:26:41;43.45;;;18.00;;
39896;SDS011;25567;48.276;14.242;2023-12-20T03:29:22;43.03;;;18.77;;
39896;SDS011;25567;48.276;14.242;2023-12-20T03:32:02;44.92;;;21.05;;
39896;SDS011;25567;48.276;14.242;2023-12-20T03:34:43;42.55;;;19.00;;
39896;SDS011;25567;48.276;14.242;2023-12-20T03:37:24;40.92;;;18.15;;
39896;SDS011;25567;48.276;14.242;2023-12-20T03:40:04;40.15;;;17.95;;
39896;SDS011;25567;48.276;14.242;2023-12-20T03:42:30;44.00;;;17.58;;
39896;SDS011;25567;48.276;14.242;2023-12-20T03:44:56;38.05;;;17.40;;
39896;SDS011;25567;48.276;14.242;2023-12-20T03:47:21;43.97;;;17.42;;
39896;SDS011;25567;48.276;14.242;2023-12-20T03:49:46;41.10;;;17.40;;
39896;SDS011;25567;48.276;14.242;2023-12-20T03:52:12;41.13;;;18.58;;
39896;SDS011;25567;48.276;14.242;2023-12-20T03:54:37;43.33;;;17.70;;
39896;SDS011;25567;48.276;14.242;2023-12-20T03:57:03;43.30;;;18.27;;
39896;SDS011;25567;48.276;14.242;2023-12-20T03:59:28;45.90;;;18.92;;
39896;SDS011;25567;48.276;14.242;2023-12-20T04:01:54;52.00;;;19.10;;
39896;SDS011;25567;48.276;14.242;2023-12-20T04:04:19;40.95;;;18.67;;
39896;SDS011;25567;48.276;14.242;2023-12-20T04:06:45;43.90;;;19.02;;
39896;SDS011;25567;48.276;14.242;2023-12-20T04:09:10;45.03;;;19.20;;
39896;SDS011;25567;48.276;14.242;2023-12-20T04:11:39;41.25;;;17.85;;
39896;SDS011;25567;48.276;14.242;2023-12-20T04:14:04;39.97;;;18.98;;
39896;SDS011;25567;48.276;14.242;2023-12-20T04:16:30;40.45;;;18.50;;
39896;SDS011;25567;48.276;14.242;2023-12-20T04:18:55;40.97;;;18.20;;
39896;SDS011;25567;48.276;14.242;2023-12-20T04:21:21;41.80;;;17.98;;
39896;SDS011;25567;48.276;14.242;2023-12-20T04:23:46;40.67;;;19.38;;
39896;SDS011;25567;48.276;14.242;2023-12-20T04:26:11;41.85;;;18.73;;
39896;SDS011;25567;48.276;14.242;2023-12-20T04:28:37;34.85;;;16.98;;
39896;SDS011;25567;48.276;14.242;2023-12-20T04:31:02;35.53;;;16.83;;
39896;SDS011;25567;48.276;14.242;2023-12-20T04:33:28;44.90;;;17.65;;
39896;SDS011;25567;48.276;14.242;2023-12-20T04:35:53;38.63;;;17.70;;
39896;SDS011;25567;48.276;14.242;2023-12-20T04:38:18;36.97;;;16.83;;
39896;SDS011;25567;48.276;14.242;2023-12-20T04:40:44;39.90;;;17.02;;
39896;SDS011;25567;48.276;14.242;2023-12-20T04:43:09;35.22;;;16.73;;
39896;SDS011;25567;48.276;14.242;2023-12-20T04:45:35;37.47;;;17.33;;
39896;SDS011;25567;48.276;14.242;2023-12-20T04:48:01;41.22;;;17.83;;
39896;SDS011;25567;48.276;14.242;2023-12-20T04:50:27;42.95;;;19.05;;
39896;SDS011;25567;48.276;14.242;2023-12-20T04:52:52;43.30;;;19.23;;
39896;SDS011;25567;48.276;14.242;2023-12-20T04:55:18;40.75;;;19.17;;
39896;SDS011;25567;48.276;14.242;2023-12-20T04:57:43;42.60;;;19.02;;
39896;SDS011;25567;48.276;14.242;2023-12-20T05:00:22;43.60;;;19.20;;
39896;SDS011;25567;48.276;14.242;2023-12-20T05:02:49;44.30;;;19.20;;
39896;SDS011;25567;48.276;14.242;2023-12-20T05:05:16;43.20;;;18.83;;
39896;SDS011;25567;48.276;14.242;2023-12-20T05:07:44;45.50;;;20.50;;
39896;SDS011;25567;48.276;14.242;2023-12-20T05:10:12;43.38;;;20.38;;
39896;SDS011;25567;48.276;14.242;2023-12-20T05:12:39;52.42;;;21.38;;
39896;SDS011;25567;48.276;14.242;2023-12-20T05:15:06;46.85;;;20.20;;
39896;SDS011;25567;48.276;14.242;2023-12-20T05:17:33;42.95;;;19.55;;
39896;SDS011;25567;48.276;14.242;2023-12-20T05:20:00;44.20;;;19.95;;
39896;SDS011;25567;48.276;14.242;2023-12-20T05:22:27;45.72;;;20.23;;
39896;SDS011;25567;48.276;14.242;2023-12-20T05:24:54;43.78;;;20.08;;
39896;SDS011;25567;48.276;14.242;2023-12-20T05:27:21;44.42;;;21.05;;
39896;SDS011;25567;48.276;14.242;2023-12-20T05:29:48;46.13;;;20.63;;
39896;SDS011;25567;48.276;14.242;2023-12-20T05:32:16;42.60;;;19.65;;
39896;SDS011;25567;48.276;14.242;2023-12-20T05:34:43;44.83;;;20.02;;
39896;SDS011;25567;48.276;14.242;2023-12-20T05:37:10;45.88;;;20.30;;
39896;SDS011;25567;48.276;14.242;2023-12-20T05:39:38;47.08;;;21.92;;
39896;SDS011;25567;48.276;14.242;2023-12-20T05:42:05;35.08;;;15.95;;
39896;SDS011;25567;48.276;14.242;2023-12-20T05:44:31;35.85;;;15.73;;
39896;SDS011;25567;48.276;14.242;2023-12-20T05:46:58;26.60;;;12.27;;
39896;SDS011;25567;48.276;14.242;2023-12-20T05:49:25;24.55;;;12.02;;
39896;SDS011;25567;48.276;14.242;2023-12-20T05:51:52;24.80;;;11.20;;
39896;SDS011;25567;48.276;14.242;2023-12-20T05:54:19;26.90;;;11.90;;
39896;SDS011;25567;48.276;14.242;2023-12-20T05:56:46;25.38;;;11.75;;
39896;SDS011;25567;48.276;14.242;2023-12-20T05:59:12;25.80;;;11.82;;
39896;SDS011;25567;48.276;14.242;2023-12-20T06:01:39;23.30;;;11.30;;
39896;SDS011;25567;48.276;14.242;2023-12-20T06:04:06;24.20;;;11.48;;
39896;SDS011;25567;48.276;14.242;2023-12-20T06:06:33;25.67;;;12.02;;
39896;SDS011;25567;48.276;14.242;2023-12-20T06:09:00;27.83;;;11.93;;
39896;SDS011;25567;48.276;14.242;2023-12-20T06:11:29;23.38;;;11.68;;
39896;SDS011;25567;48.276;14.242;2023-12-20T06:13:56;22.65;;;11.15;;
39896;SDS011;25567;48.276;14.242;2023-12-20T06:16:23;23.45;;;11.43;;
39896;SDS011;25567;48.276;14.242;2023-12-20T06:18:50;25.13;;;12.10;;
39896;SDS011;25567;48.276;14.242;2023-12-20T06:21:17;25.92;;;11.98;;
39896;SDS011;25567;48.276;14.242;2023-12-20T06:23:44;28.75;;;13.18;;
39896;SDS011;25567;48.276;14.242;2023-12-20T06:26:11;22.48;;;10.23;;
39896;SDS011;25567;48.276;14.242;2023-12-20T06:28:38;21.70;;;9.20;;
39896;SDS011;25567;48.276;14.242;2023-12-20T06:31:07;20.58;;;9.60;;
39896;SDS011;25567;48.276;14.242;2023-12-20T06:33:34;21.95;;;9.13;;
39896;SDS011;25567;48.276;14.242;2023-12-20T06:36:01;17.33;;;8.45;;
39896;SDS011;25567;48.276;14.242;2023-12-20T06:38:28;18.98;;;8.32;;
39896;SDS011;25567;48.276;14.242;2023-12-20T06:40:54;16.95;;;7.88;;
39896;SDS011;25567;48.276;14.242;2023-12-20T06:43:24;19.00;;;9.05;;
39896;SDS011;25567;48.276;14.242;2023-12-20T06:46:08;17.38;;;8.10;;
39896;SDS011;25567;48.276;14.242;2023-12-20T06:48:36;17.33;;;7.50;;
39896;SDS011;25567;48.276;14.242;2023-12-20T06:51:02;16.65;;;7.93;;
39896;SDS011;25567;48.276;14.242;2023-12-20T06:53:29;15.95;;;7.28;;
39896;SDS011;25567;48.276;14.242;2023-12-20T06:55:56;15.98;;;7.68;;
39896;SDS011;25567;48.276;14.242;2023-12-20T06:58:23;15.98;;;7.15;;
39896;SDS011;25567;48.276;14.242;2023-12-20T07:00:50;15.93;;;7.80;;
39896;SDS011;25567;48.276;14.242;2023-12-20T07:03:18;16.52;;;8.25;;
39896;SDS011;25567;48.276;14.242;2023-12-20T07:05:44;19.00;;;8.85;;
39896;SDS011;25567;48.276;14.242;2023-12-20T07:08:11;22.50;;;9.23;;
39896;SDS011;25567;48.276;14.242;2023-12-20T07:10:40;20.30;;;9.50;;
39896;SDS011;25567;48.276;14.242;2023-12-20T07:13:08;28.73;;;9.85;;
39896;SDS011;25567;48.276;14.242;2023-12-20T07:15:34;21.25;;;9.65;;
39896;SDS011;25567;48.276;14.242;2023-12-20T07:18:03;18.13;;;9.40;;
39896;SDS011;25567;48.276;14.242;2023-12-20T07:20:31;19.80;;;9.30;;
39896;SDS011;25567;48.276;14.242;2023-12-20T07:22:58;21.13;;;9.20;;
39896;SDS011;25567;48.276;14.242;2023-12-20T07:25:25;24.10;;;9.85;;
39896;SDS011;25567;48.276;14.242;2023-12-20T07:27:52;20.50;;;9.52;;
39896;SDS011;25567;48.276;14.242;2023-12-20T07:30:19;17.83;;;9.40;;
39896;SDS011;25567;48.276;14.242;2023-12-20T07:32:46;19.13;;;9.02;;
39896;SDS011;25567;48.276;14.242;2023-12-20T07:35:14;16.75;;;8.82;;
39896;SDS011;25567;48.276;14.242;2023-12-20T07:37:42;19.42;;;9.65;;
39896;SDS011;25567;48.276;14.242;2023-12-20T07:40:09;23.20;;;9.10;;
39896;SDS011;25567;48.276;14.242;2023-12-20T07:42:36;20.60;;;9.90;;
39896;SDS011;25567;48.276;14.242;2023-12-20T07:45:03;18.90;;;8.38;;
39896;SDS011;25567;48.276;14.242;2023-12-20T07:47:30;18.92;;;9.07;;
39896;SDS011;25567;48.276;14.242;2023-12-20T07:49:57;20.17;;;8.95;;
39896;SDS011;25567;48.276;14.242;2023-12-20T07:52:24;16.20;;;8.10;;
39896;SDS011;25567;48.276;14.242;2023-12-20T07:54:51;19.20;;;8.93;;
39896;SDS011;25567;48.276;14.242;2023-12-20T07:57:17;17.17;;;8.25;;
39896;SDS011;25567;48.276;14.242;2023-12-20T07:59:44;20.13;;;7.80;;
39896;SDS011;25567;48.276;14.242;2023-12-20T08:02:11;16.13;;;7.05;;
39896;SDS011;25567;48.276;14.242;2023-12-20T08:04:38;14.70;;;5.85;;
39896;SDS011;25567;48.276;14.242;2023-12-20T08:07:05;11.07;;;5.15;;
39896;SDS011;25567;48.276;14.242;2023-12-20T08:09:32;14.27;;;5.82;;
39896;SDS011;25567;48.276;14.242;2023-12-20T08:12:00;11.73;;;5.25;;
39896;SDS011;25567;48.276;14.242;2023-12-20T08:14:27;10.23;;;5.43;;
39896;SDS011;25567;48.276;14.242;2023-12-20T08:16:53;12.25;;;5.25;;
39896;SDS011;25567;48.276;14.242;2023-12-20T08:19:20;11.90;;;5.82;;
39896;SDS011;25567;48.276;14.242;2023-12-20T08:21:47;9.98;;;5.10;;
39896;SDS011;25567;48.276;14.242;2023-12-20T08:24:14;11.95;;;4.60;;
39896;SDS011;25567;48.276;14.242;2023-12-20T08:26:40;10.98;;;4.13;;
39896;SDS011;25567;48.276;14.242;2023-12-20T08:29:07;10.65;;;4.45;;
39896;SDS011;25567;48.276;14.242;2023-12-20T08:31:34;9.15;;;4.05;;
39896;SDS011;25567;48.276;14.242;2023-12-20T08:34:00;12.68;;;4.50;;
39896;SDS011;25567;48.276;14.242;2023-12-20T08:36:29;8.07;;;3.60;;
39896;SDS011;25567;48.276;14.242;2023-12-20T08:38:56;7.20;;;3.80;;
39896;SDS011;25567;48.276;14.242;2023-12-20T08:41:22;9.15;;;3.50;;
39896;SDS011;25567;48.276;14.242;2023-12-20T08:43:49;7.30;;;3.90;;
39896;SDS011;25567;48.276;14.242;2023-12-20T08:46:17;9.52;;;3.20;;
39896;SDS011;25567;48.276;14.242;2023-12-20T08:48:44;9.63;;;3.53;;
39896;SDS011;25567;48.276;14.242;2023-12-20T08:51:12;6.82;;;3.10;;
39896;SDS011;25567;48.276;14.242;2023-12-20T08:53:39;6.78;;;3.70;;
39896;SDS011;25567;48.276;14.242;2023-12-20T08:56:06;6.95;;;3.78;;
39896;SDS011;25567;48.276;14.242;2023-12-20T08:58:33;9.00;;;3.97;;
39896;SDS011;25567;48.276;14.242;2023-12-20T09:01:02;9.63;;;4.13;;
39896;SDS011;25567;48.276;14.242;2023-12-20T09:03:29;7.25;;;4.03;;
39896;SDS011;25567;48.276;14.242;2023-12-20T09:05:56;8.13;;;4.05;;
39896;SDS011;25567;48.276;14.242;2023-12-20T09:08:23;8.38;;;4.18;;
39896;SDS011;25567;48.276;14.242;2023-12-20T09:10:49;9.95;;;4.60;;
39896;SDS011;25567;48.276;14.242;2023-12-20T09:13:16;12.85;;;4.15;;
39896;SDS011;25567;48.276;14.242;2023-12-20T09:15:43;11.52;;;4.25;;
39896;SDS011;25567;48.276;14.242;2023-12-20T09:18:10;12.45;;;3.53;;
39896;SDS011;25567;48.276;14.242;2023-12-20T09:20:37;8.20;;;4.47;;
39896;SDS011;25567;48.276;14.242;2023-12-20T09:23:08;7.38;;;4.22;;
39896;SDS011;25567;48.276;14.242;2023-12-20T09:25:35;7.65;;;3.92;;
39896;SDS011;25567;48.276;14.242;2023-12-20T09:28:01;9.73;;;4.03;;
39896;SDS011;25567;48.276;14.242;2023-12-20T09:30:28;8.00;;;3.88;;
39896;SDS011;25567;48.276;14.242;2023-12-20T09:32:55;7.38;;;3.88;;
39896;SDS011;25567;48.276;14.242;2023-12-20T09:35:22;9.15;;;4.03;;
39896;SDS011;25567;48.276;14.242;2023-12-20T09:37:50;9.65;;;4.25;;
39896;SDS011;25567;48.276;14.242;2023-12-20T09:40:18;8.75;;;3.90;;
39896;SDS011;25567;48.276;14.242;2023-12-20T09:45:11;7.38;;;3.33;;
39896;SDS011;25567;48.276;14.242;2023-12-20T09:47:42;10.65;;;3.85;;
39896;SDS011;25567;48.276;14.242;2023-12-20T09:50:09;7.38;;;4.20;;
39896;SDS011;25567;48.276;14.242;2023-12-20T09:52:37;8.23;;;3.88;;
39896;SDS011;25567;48.276;14.242;2023-12-20T09:55:05;8.48;;;4.00;;
39896;SDS011;25567;48.276;14.242;2023-12-20T09:57:33;8.82;;;3.78;;
39896;SDS011;25567;48.276;14.242;2023-12-20T10:00:00;8.68;;;4.50;;
39896;SDS011;25567;48.276;14.242;2023-12-20T10:02:27;10.27;;;4.32;;
39896;SDS011;25567;48.276;14.242;2023-12-20T10:04:54;10.77;;;4.13;;
39896;SDS011;25567;48.276;14.242;2023-12-20T10:07:21;9.73;;;4.13;;
39896;SDS011;25567;48.276;14.242;2023-12-20T10:09:49;7.95;;;4.35;;
39896;SDS011;25567;48.276;14.242;2023-12-20T10:12:17;8.18;;;4.32;;
39896;SDS011;25567;48.276;14.242;2023-12-20T10:14:44;8.20;;;4.20;;
39896;SDS011;25567;48.276;14.242;2023-12-20T10:17:10;9.88;;;4.05;;
39896;SDS011;25567;48.276;14.242;2023-12-20T10:19:37;8.95;;;3.78;;
39896;SDS011;25567;48.276;14.242;2023-12-20T10:22:04;7.07;;;3.95;;
39896;SDS011;25567;48.276;14.242;2023-12-20T10:24:31;7.63;;;4.10;;
39896;SDS011;25567;48.276;14.242;2023-12-20T10:27:02;8.18;;;3.95;;
39896;SDS011;25567;48.276;14.242;2023-12-20T10:29:33;9.75;;;4.13;;
39896;SDS011;25567;48.276;14.242;2023-12-20T10:32:37;8.25;;;4.35;;
39896;SDS011;25567;48.276;14.242;2023-12-20T10:34:58;9.65;;;4.07;;
39896;SDS011;25567;48.276;14.242;2023-12-20T10:37:26;7.20;;;3.47;;
39896;SDS011;25567;48.276;14.242;2023-12-20T10:39:54;9.43;;;3.85;;
39896;SDS011;25567;48.276;14.242;2023-12-20T10:42:24;8.00;;;3.42;;
39896;SDS011;25567;48.276;14.242;2023-12-20T10:44:52;10.27;;;3.90;;
39896;SDS011;25567;48.276;14.242;2023-12-20T10:47:20;5.43;;;3.05;;
39896;SDS011;25567;48.276;14.242;2023-12-20T10:49:47;8.88;;;3.58;;
39896;SDS011;25567;48.276;14.242;2023-12-20T10:52:14;7.15;;;3.50;;
39896;SDS011;25567;48.276;14.242;2023-12-20T10:54:44;7.90;;;3.72;;
39896;SDS011;25567;48.276;14.242;2023-12-20T10:57:11;6.85;;;3.72;;
39896;SDS011;25567;48.276;14.242;2023-12-20T10:59:38;6.82;;;3.95;;
39896;SDS011;25567;48.276;14.242;2023-12-20T11:02:06;7.72;;;3.60;;
39896;SDS011;25567;48.276;14.242;2023-12-20T11:04:37;6.78;;;3.45;;
39896;SDS011;25567;48.276;14.242;2023-12-20T11:07:21;8.38;;;3.30;;
39896;SDS011;25567;48.276;14.242;2023-12-20T11:10:10;6.82;;;3.25;;
39896;SDS011;25567;48.276;14.242;2023-12-20T11:12:38;6.13;;;3.08;;
39896;SDS011;25567;48.276;14.242;2023-12-20T11:15:06;5.47;;;2.78;;
39896;SDS011;25567;48.276;14.242;2023-12-20T11:17:33;4.97;;;3.08;;
39896;SDS011;25567;48.276;14.242;2023-12-20T11:22:29;7.90;;;4.00;;
39896;SDS011;25567;48.276;14.242;2023-12-20T11:25:07;5.22;;;3.08;;
39896;SDS011;25567;48.276;14.242;2023-12-20T11:27:35;6.13;;;3.00;;
39896;SDS011;25567;48.276;14.242;2023-12-20T11:30:02;6.20;;;3.28;;
39896;SDS011;25567;48.276;14.242;2023-12-20T11:32:30;3.85;;;2.10;;
39896;SDS011;25567;48.276;14.242;2023-12-20T11:35:39;5.00;;;2.50;;
39896;SDS011;25567;48.276;14.242;2023-12-20T11:37:47;3.47;;;2.22;;
39896;SDS011;25567;48.276;14.242;2023-12-20T11:40:15;4.18;;;2.20;;
39896;SDS011;25567;48.276;14.242;2023-12-20T11:42:43;6.22;;;2.30;;
39896;SDS011;25567;48.276;14.242;2023-12-20T11:45:11;5.55;;;2.42;;
39896;SDS011;25567;48.276;14.242;2023-12-20T11:47:45;3.38;;;2.10;;
39896;SDS011;25567;48.276;14.242;2023-12-20T11:50:13;3.38;;;2.30;;
39896;SDS011;25567;48.276;14.242;2023-12-20T11:52:41;9.65;;;2.33;;
39896;SDS011;25567;48.276;14.242;2023-12-20T11:55:07;2.42;;;1.73;;
39896;SDS011;25567;48.276;14.242;2023-12-20T11:57:35;3.15;;;1.85;;
39896;SDS011;25567;48.276;14.242;2023-12-20T12:00:02;3.45;;;1.70;;
39896;SDS011;25567;48.276;14.242;2023-12-20T12:02:30;2.70;;;1.70;;
39896;SDS011;25567;48.276;14.242;2023-12-20T12:04:57;5.03;;;1.48;;
39896;SDS011;25567;48.276;14.242;2023-12-20T12:07:25;2.67;;;1.58;;
39896;SDS011;25567;48.276;14.242;2023-12-20T12:09:52;4.32;;;1.92;;
39896;SDS011;25567;48.276;14.242;2023-12-20T12:12:19;3.00;;;1.70;;
39896;SDS011;25567;48.276;14.242;2023-12-20T12:14:46;4.57;;;1.60;;
39896;SDS011;25567;48.276;14.242;2023-12-20T12:17:13;2.08;;;1.50;;
39896;SDS011;25567;48.276;14.242;2023-12-20T12:19:40;2.58;;;1.45;;
39896;SDS011;25567;48.276;14.242;2023-12-20T12:22:11;3.83;;;1.85;;
39896;SDS011;25567;48.276;14.242;2023-12-20T12:24:43;5.47;;;1.90;;
39896;SDS011;25567;48.276;14.242;2023-12-20T12:27:11;1.63;;;1.33;;
39896;SDS011;25567;48.276;14.242;2023-12-20T12:29:38;2.47;;;1.70;;
39896;SDS011;25567;48.276;14.242;2023-12-20T12:32:09;3.95;;;1.77;;
39896;SDS011;25567;48.276;14.242;2023-12-20T12:34:36;3.25;;;1.70;;
39896;SDS011;25567;48.276;14.242;2023-12-20T12:37:03;5.72;;;2.13;;
39896;SDS011;25567;48.276;14.242;2023-12-20T12:39:30;3.63;;;1.83;;
39896;SDS011;25567;48.276;14.242;2023-12-20T12:41:57;9.02;;;2.50;;
39896;SDS011;25567;48.276;14.242;2023-12-20T12:44:23;3.53;;;1.90;;
39896;SDS011;25567;48.276;14.242;2023-12-20T12:46:51;3.83;;;1.98;;
39896;SDS011;25567;48.276;14.242;2023-12-20T12:49:20;3.72;;;2.08;;
39896;SDS011;25567;48.276;14.242;2023-12-20T12:51:50;3.25;;;1.80;;
39896;SDS011;25567;48.276;14.242;2023-12-20T12:54:18;3.78;;;2.08;;
39896;SDS011;25567;48.276;14.242;2023-12-20T12:56:45;3.33;;;1.95;;
39896;SDS011;25567;48.276;14.242;2023-12-20T12:59:13;2.75;;;1.60;;
39896;SDS011;25567;48.276;14.242;2023-12-20T13:01:40;7.32;;;2.10;;
39896;SDS011;25567;48.276;14.242;2023-12-20T13:04:07;4.00;;;2.10;;
39896;SDS011;25567;48.276;14.242;2023-12-20T13:06:38;4.05;;;1.83;;
39896;SDS011;25567;48.276;14.242;2023-12-20T13:09:05;3.58;;;1.80;;
39896;SDS011;25567;48.276;14.242;2023-12-20T13:11:32;3.22;;;2.13;;
39896;SDS011;25567;48.276;14.242;2023-12-20T13:13:58;5.65;;;2.20;;
39896;SDS011;25567;48.276;14.242;2023-12-20T13:16:25;4.78;;;2.17;;
39896;SDS011;25567;48.276;14.242;2023-12-20T13:18:52;6.47;;;2.08;;
39896;SDS011;25567;48.276;14.242;2023-12-20T13:21:19;4.50;;;2.05;;
39896;SDS011;25567;48.276;14.242;2023-12-20T13:23:46;4.55;;;2.33;;
39896;SDS011;25567;48.276;14.242;2023-12-20T13:26:13;3.55;;;1.92;;
39896;SDS011;25567;48.276;14.242;2023-12-20T13:28:39;4.05;;;2.30;;
39896;SDS011;25567;48.276;14.242;2023-12-20T13:31:06;3.63;;;2.25;;
39896;SDS011;25567;48.276;14.242;2023-12-20T13:33:33;4.90;;;2.65;;
39896;SDS011;25567;48.276;14.242;2023-12-20T13:36:00;6.75;;;2.40;;
39896;SDS011;25567;48.276;14.242;2023-12-20T13:38:31;4.10;;;2.55;;
39896;SDS011;25567;48.276;14.242;2023-12-20T13:40:57;5.20;;;2.42;;
39896;SDS011;25567;48.276;14.242;2023-12-20T13:43:25;5.03;;;2.50;;
39896;SDS011;25567;48.276;14.242;2023-12-20T13:45:52;5.10;;;2.58;;
39896;SDS011;25567;48.276;14.242;2023-12-20T13:48:19;8.52;;;2.47;;
39896;SDS011;25567;48.276;14.242;2023-12-20T13:50:46;4.70;;;2.58;;
39896;SDS011;25567;48.276;14.242;2023-12-20T13:53:13;9.73;;;2.65;;
39896;SDS011;25567;48.276;14.242;2023-12-20T13:55:40;5.22;;;2.50;;
39896;SDS011;25567;48.276;14.242;2023-12-20T13:58:07;5.05;;;2.60;;
39896;SDS011;25567;48.276;14.242;2023-12-20T14:00:34;4.10;;;2.30;;
39896;SDS011;25567;48.276;14.242;2023-12-20T14:03:00;5.00;;;2.88;;
39896;SDS011;25567;48.276;14.242;2023-12-20T14:05:28;4.63;;;2.75;;
39896;SDS011;25567;48.276;14.242;2023-12-20T14:07:55;5.60;;;2.60;;
39896;SDS011;25567;48.276;14.242;2023-12-20T14:10:24;4.63;;;2.60;;
39896;SDS011;25567;48.276;14.242;2023-12-20T14:12:54;5.70;;;2.83;;
39896;SDS011;25567;48.276;14.242;2023-12-20T14:15:22;5.70;;;3.38;;
39896;SDS011;25567;48.276;14.242;2023-12-20T14:17:52;7.03;;;3.08;;
39896;SDS011;25567;48.276;14.242;2023-12-20T14:20:19;4.57;;;2.38;;
39896;SDS011;25567;48.276;14.242;2023-12-20T14:22:46;4.68;;;3.17;;
39896;SDS011;25567;48.276;14.242;2023-12-20T14:25:13;4.70;;;2.83;;
39896;SDS011;25567;48.276;14.242;2023-12-20T14:27:41;5.38;;;3.03;;
39896;SDS011;25567;48.276;14.242;2023-12-20T14:30:11;4.63;;;1.80;;